Time;durP1;ratioP1;P1;durP2;ratioP2;P2;SDS_P1;SDS_P2;PMS_P1;PMS_P2;Temp;Humidity;BMP_temperature;BMP_pressure;BME280_temperature;BME280_humidity;BME280_pressure;Samples;Min_cycle;Max_cycle;Signal;HPM_P1;HPM_P2
2023/11/28 01:39:53;;;;;;;;;;;2.00;99.90;;;;;;6757170;88;20234;-87
2023/11/28 04:01:51;;;;;;;;;;;1.40;99.90;;;;;;6699038;88;20032;-83
2023/11/28 04:11:52;;;;;;;;;;;1.50;99.90;;;;;;6698135;88;20130;-83
2023/11/28 04:21:52;;;;;;;;;;;1.50;99.90;;;;;;6696838;88;20032;-83
2023/11/28 04:31:52;;;;;;;;;;;1.40;99.90;;;;;;6696681;88;20033;-83
2023/11/28 04:41:53;;;;;;;;;;;1.30;99.90;;;;;;6711622;88;20117;-83
2023/11/28 04:51:54;;;;;;;;;;;1.40;99.90;;;;;;6682251;89;20039;-83
2023/11/28 05:01:54;;;;;;;;;;;1.40;99.90;;;;;;6648676;89;20072;-83
2023/11/28 05:11:54;;;;;;;;;;;1.40;99.90;;;;;;6633890;89;20075;-84
2023/11/28 05:21:55;;;;;;;;;;;1.40;99.90;;;;;;6668823;89;20029;-83
2023/11/28 05:31:56;;;;;;;;;;;1.30;99.90;;;;;;6710016;88;20078;-84
2023/11/28 05:41:56;;;;;;;;;;;1.30;99.90;;;;;;6717648;88;20036;-83
2023/11/28 05:51:57;;;;;;;;;;;1.30;99.90;;;;;;6681267;89;20036;-84
2023/11/28 06:02:00;;;;;;;;;;;1.30;99.90;;;;;;6664372;89;20111;-84
2023/11/28 06:12:00;;;;;;;;;;;1.30;99.90;;;;;;6664401;89;20098;-83
2023/11/28 06:22:01;;;;;;;;;;;1.20;99.90;;;;;;6691243;88;20024;-83
2023/11/28 06:53:04;;;;;;;;;;;1.40;99.90;;;;;;6800308;77;20111;-82
2023/11/28 07:23:48;;;;;;;;;;;1.40;99.90;;;;;;6751386;88;20054;-82
2023/11/28 07:33:49;;;;;;;;;;;1.40;99.90;;;;;;6697226;89;20057;-82
2023/11/28 07:43:49;;;;;;;;;;;1.40;99.90;;;;;;6716554;88;20027;-84
2023/11/28 07:53:50;;;;;;;;;;;1.40;99.90;;;;;;6747063;88;20726;-82
2023/11/28 08:03:51;;;;;;;;;;;1.40;99.90;;;;;;6729897;88;20052;-83
2023/11/28 08:13:51;;;;;;;;;;;1.40;99.90;;;;;;6695298;89;20028;-84
2023/11/28 08:23:52;;;;;;;;;;;1.40;99.90;;;;;;6661885;89;20078;-81
2023/11/28 08:33:52;;;;;;;;;;;1.40;99.90;;;;;;6670691;89;20065;-83
2023/11/28 08:43:53;;;;;;;;;;;1.40;99.90;;;;;;6690573;89;20117;-82
2023/11/28 08:53:54;;;;;;;;;;;1.30;99.90;;;;;;6667379;89;20772;-84
2023/11/28 09:03:55;;;;;;;;;;;1.40;99.90;;;;;;6709604;88;20103;-82
2023/11/28 09:13:55;;;;;;;;;;;1.40;99.90;;;;;;6740062;88;20066;-81
2023/11/28 09:23:56;;;;;;;;;;;1.40;99.90;;;;;;6737542;88;20127;-82
2023/11/28 09:33:59;;;;;;;;;;;1.30;99.90;;;;;;6743850;88;20163;-83
2023/11/28 09:44:01;;;;;;;;;;;1.30;99.90;;;;;;6740965;88;20080;-83
2023/11/28 09:54:02;;;;;;;;;;;1.30;99.90;;;;;;6741496;88;20055;-82
2023/11/28 10:04:02;;;;;;;;;;;1.30;99.90;;;;;;6742951;88;20082;-81
2023/11/28 10:14:03;;;;;;;;;;;1.40;99.90;;;;;;6742645;88;20139;-82
2023/11/28 10:35:05;;;;;;;;;;;1.50;99.90;;;;;;6755501;88;20114;-82
2023/11/28 10:45:08;;;;;;;;;;;1.60;99.90;;;;;;6777602;87;20096;-81
2023/11/28 10:55:12;;;;;;;;;;;1.50;99.90;;;;;;6761523;88;20135;-80
2023/11/28 11:05:12;;;;;;;;;;;1.70;99.90;;;;;;6767092;88;20524;-81
2023/11/28 11:15:24;;;;;;;;;;;1.70;99.90;;;;;;6770156;87;20089;-83
2023/11/28 11:25:28;;;;;;;;;;;1.80;99.90;;;;;;6770715;88;20082;-80
2023/11/28 11:35:29;;;;;;;;;;;1.70;99.90;;;;;;6758453;87;20089;-81
2023/11/28 11:45:32;;;;;;;;;;;1.80;99.90;;;;;;6755765;88;20061;-81
2023/11/28 11:55:33;;;;;;;;;;;2.00;99.90;;;;;;6767473;88;20086;-79
2023/11/28 12:05:36;;;;;;;;;;;1.90;99.90;;;;;;6766772;87;20081;-80
2023/11/28 12:15:37;;;;;;;;;;;1.90;99.90;;;;;;6761579;88;20065;-80
2023/11/28 12:25:38;;;;;;;;;;;1.90;99.90;;;;;;6762750;88;20081;-79
2023/11/28 12:35:38;;;;;;;;;;;2.00;99.90;;;;;;6758214;87;20097;-79
2023/11/28 12:45:40;;;;;;;;;;;2.10;99.90;;;;;;6761533;88;20142;-80
2023/11/28 12:55:42;;;;;;;;;;;2.50;99.90;;;;;;6758399;88;20071;-79
2023/11/28 13:05:43;;;;;;;;;;;2.40;99.90;;;;;;6754196;88;20098;-79
2023/11/28 13:15:43;;;;;;;;;;;2.40;99.90;;;;;;6759662;88;20092;-78
2023/11/28 13:25:44;;;;;;;;;;;2.30;99.90;;;;;;6762595;88;20301;-79
2023/11/28 13:35:46;;;;;;;;;;;2.30;99.90;;;;;;6764498;88;20078;-79
2023/11/28 13:45:46;;;;;;;;;;;2.10;99.90;;;;;;6757514;88;20350;-79
2023/11/28 13:55:47;;;;;;;;;;;2.20;99.90;;;;;;6765138;87;20073;-79
2023/11/28 14:05:47;;;;;;;;;;;2.10;99.90;;;;;;6761922;88;20161;-79
2023/11/28 14:15:48;;;;;;;;;;;2.10;99.90;;;;;;6759889;87;20086;-79
2023/11/28 14:25:49;;;;;;;;;;;2.10;99.90;;;;;;6761517;88;20087;-79
2023/11/28 14:35:49;;;;;;;;;;;2.00;99.90;;;;;;6765856;87;20111;-80
2023/11/28 14:45:49;;;;;;;;;;;2.00;99.90;;;;;;6763169;88;20552;-80
2023/11/28 14:55:52;;;;;;;;;;;1.90;99.90;;;;;;6761983;88;20094;-80
2023/11/28 15:05:53;;;;;;;;;;;1.90;99.90;;;;;;6771490;88;20087;-82
2023/11/28 15:15:53;;;;;;;;;;;1.80;99.90;;;;;;6766355;88;20069;-80
2023/11/28 15:25:54;;;;;;;;;;;1.80;99.90;;;;;;6765562;88;20061;-81
2023/11/28 15:35:55;;;;;;;;;;;1.70;99.90;;;;;;6767597;87;20183;-80
2023/11/28 15:45:55;;;;;;;;;;;1.70;99.90;;;;;;6771535;87;20068;-80
2023/11/28 15:55:56;;;;;;;;;;;1.60;99.90;;;;;;6763177;88;20071;-78
2023/11/28 16:06:01;;;;;;;;;;;1.50;99.90;;;;;;6762495;87;20025;-80
2023/11/28 16:16:01;;;;;;;;;;;1.60;99.90;;;;;;6777882;87;20031;-83
2023/11/28 16:26:02;;;;;;;;;;;1.50;99.90;;;;;;6782052;77;20063;-79
2023/11/28 16:36:08;;;;;;;;;;;1.40;99.90;;;;;;6749777;88;20507;-78
2023/11/28 16:46:09;;;;;;;;;;;1.40;99.90;;;;;;6750612;88;20054;-78
2023/11/28 16:56:10;;;;;;;;;;;1.40;99.90;;;;;;6749945;88;20080;-80
2023/11/28 17:06:12;;;;;;;;;;;1.40;99.90;;;;;;6754132;88;20093;-80
2023/11/28 17:16:12;;;;;;;;;;;1.40;99.90;;;;;;6751046;88;20069;-78
2023/11/28 17:26:13;;;;;;;;;;;1.30;99.90;;;;;;6752952;87;20062;-82
2023/11/28 17:36:13;;;;;;;;;;;1.30;99.90;;;;;;6749679;88;20529;-81
2023/11/28 17:46:14;;;;;;;;;;;1.30;99.90;;;;;;6752269;88;20059;-82
2023/11/28 17:56:14;;;;;;;;;;;1.10;99.90;;;;;;6759180;88;20080;-80
2023/11/28 18:06:15;;;;;;;;;;;0.90;99.90;;;;;;6753712;88;20075;-80
2023/11/28 18:16:15;;;;;;;;;;;0.70;99.90;;;;;;6749706;88;20658;-81
2023/11/28 18:26:16;;;;;;;;;;;0.70;99.90;;;;;;6752418;88;20074;-79
2023/11/28 18:36:17;;;;;;;;;;;0.50;99.90;;;;;;6745515;88;20054;-81
2023/11/28 18:46:20;;;;;;;;;;;0.20;99.90;;;;;;6757925;88;20549;-82
2023/11/28 18:56:21;;;;;;;;;;;0.10;99.90;;;;;;6768253;88;20049;-81
2023/11/28 19:06:27;;;;;;;;;;;0.00;99.90;;;;;;6763107;88;20074;-81
2023/11/28 19:16:29;;;;;;;;;;;-0.10;99.90;;;;;;6749226;88;20103;-80
2023/11/28 19:26:30;;;;;;;;;;;-0.10;99.90;;;;;;6751215;88;20038;-82
2023/11/28 19:36:30;;;;;;;;;;;-0.10;99.90;;;;;;6749513;88;20095;-83
2023/11/28 19:46:31;;;;;;;;;;;-0.10;99.90;;;;;;6751470;88;20053;-82
2023/11/28 19:56:32;;;;;;;;;;;-0.10;99.90;;;;;;6755818;88;20050;-84
2023/11/28 20:06:33;;;;;;;;;;;0.00;99.90;;;;;;6754576;88;20606;-81
2023/11/28 20:16:34;;;;;;;;;;;-0.10;99.90;;;;;;6753536;88;20072;-82
2023/11/28 20:26:34;;;;;;;;;;;-0.30;99.90;;;;;;6754693;88;20057;-82
2023/11/28 20:36:35;;;;;;;;;;;-0.30;99.90;;;;;;6755512;88;20057;-83
2023/11/28 20:46:37;;;;;;;;;;;-0.30;99.90;;;;;;6751524;88;20049;-83
2023/11/28 20:56:39;;;;;;;;;;;-0.30;99.90;;;;;;6752312;88;20088;-83
2023/11/28 21:06:39;;;;;;;;;;;-0.40;99.90;;;;;;6749618;88;20152;-83
2023/11/28 21:16:40;;;;;;;;;;;-0.60;99.90;;;;;;6755435;88;20088;-82
2023/11/28 21:26:41;;;;;;;;;;;-0.50;99.90;;;;;;6761281;88;20067;-82
2023/11/28 21:36:41;;;;;;;;;;;-0.70;99.90;;;;;;6762689;88;20128;-83
2023/11/28 21:46:43;;;;;;;;;;;-0.70;99.90;;;;;;6758345;88;20088;-82
2023/11/28 21:56:44;;;;;;;;;;;-0.80;99.90;;;;;;6756717;88;20125;-83
2023/11/28 22:06:44;;;;;;;;;;;-0.90;99.90;;;;;;6762337;88;20070;-83
2023/11/28 22:16:45;;;;;;;;;;;-1.00;99.90;;;;;;6764855;88;20567;-83
2023/11/28 22:26:45;;;;;;;;;;;-0.90;99.90;;;;;;6760348;88;20045;-83
2023/11/28 23:57:16;;;;;;;;;;;-0.80;99.90;;;;;;6756313;88;20068;-85
